sensor_id;sensor_type;location;lat;lon;timestamp;pressure;altitude;pressure_sealevel;temperature;humidity
7990;BME280;4040;42.848;23.034;2023-04-29T00:08:50;94982.28;;;3.43;100.00
7990;BME280;4040;42.848;23.034;2023-04-29T00:14:39;94957.63;;;3.27;100.00
7990;BME280;4040;42.848;23.034;2023-04-29T00:20:29;94986.47;;;3.44;100.00
7990;BME280;4040;42.848;23.034;2023-04-29T00:26:20;94989.16;;;3.44;100.00
7990;BME280;4040;42.848;23.034;2023-04-29T00:32:08;94975.00;;;3.40;100.00
7990;BME280;4040;42.848;23.034;2023-04-29T00:37:57;94975.75;;;3.40;100.00
7990;BME280;4040;42.848;23.034;2023-04-29T00:43:47;94972.91;;;3.11;100.00
7990;BME280;4040;42.848;23.034;2023-04-29T00:49:36;94978.94;;;3.08;100.00
7990;BME280;4040;42.848;23.034;2023-04-29T00:55:26;94960.72;;;2.91;100.00
7990;BME280;4040;42.848;23.034;2023-04-29T01:01:18;94966.28;;;2.86;100.00
7990;BME280;4040;42.848;23.034;2023-04-29T01:11:10;94960.06;;;2.97;100.00
7990;BME280;4040;42.848;23.034;2023-04-29T01:17:05;94962.22;;;2.73;100.00
7990;BME280;4040;42.848;23.034;2023-04-29T01:22:56;94961.78;;;2.71;100.00
7990;BME280;4040;42.848;23.034;2023-04-29T01:28:56;94949.19;;;2.68;100.00
7990;BME280;4040;42.848;23.034;2023-04-29T01:34:57;94949.03;;;2.61;100.00
7990;BME280;4040;42.848;23.034;2023-04-29T01:40:48;94936.94;;;2.29;100.00
7990;BME280;4040;42.848;23.034;2023-04-29T01:46:49;94942.41;;;2.36;100.00
7990;BME280;4040;42.848;23.034;2023-04-29T01:52:40;94947.75;;;2.36;100.00
7990;BME280;4040;42.848;23.034;2023-04-29T01:58:28;94960.09;;;2.13;100.00
7990;BME280;4040;42.848;23.034;2023-04-29T02:04:18;94947.06;;;1.77;100.00
7990;BME280;4040;42.848;23.034;2023-04-29T02:10:37;94959.75;;;1.84;100.00
7990;BME280;4040;42.848;23.034;2023-04-29T02:16:26;94958.53;;;1.81;100.00
7990;BME280;4040;42.848;23.034;2023-04-29T02:22:16;94954.84;;;1.70;100.00
7990;BME280;4040;42.848;23.034;2023-04-29T02:28:04;94949.97;;;1.41;100.00
7990;BME280;4040;42.848;23.034;2023-04-29T02:33:53;94944.44;;;1.34;100.00
7990;BME280;4040;42.848;23.034;2023-04-29T02:39:43;94935.19;;;1.28;100.00
7990;BME280;4040;42.848;23.034;2023-04-29T02:45:32;94954.66;;;1.48;100.00
7990;BME280;4040;42.848;23.034;2023-04-29T02:51:21;94951.31;;;1.35;100.00
7990;BME280;4040;42.848;23.034;2023-04-29T02:57:11;94965.69;;;1.34;100.00
7990;BME280;4040;42.848;23.034;2023-04-29T03:02:59;94961.91;;;1.35;100.00
7990;BME280;4040;42.848;23.034;2023-04-29T03:08:48;94967.22;;;1.35;100.00
7990;BME280;4040;42.848;23.034;2023-04-29T03:14:38;94985.78;;;1.35;100.00
7990;BME280;4040;42.848;23.034;2023-04-29T03:20:27;94990.25;;;1.31;100.00
7990;BME280;4040;42.848;23.034;2023-04-29T03:26:16;94987.00;;;1.38;100.00
7990;BME280;4040;42.848;23.034;2023-04-29T03:32:06;94970.03;;;1.70;100.00
7990;BME280;4040;42.848;23.034;2023-04-29T03:37:55;94974.31;;;2.05;100.00
7990;BME280;4040;42.848;23.034;2023-04-29T03:43:43;94991.28;;;2.16;100.00
7990;BME280;4040;42.848;23.034;2023-04-29T03:49:33;94980.56;;;2.43;100.00
7990;BME280;4040;42.848;23.034;2023-04-29T03:55:22;94978.16;;;2.38;100.00
7990;BME280;4040;42.848;23.034;2023-04-29T04:01:11;94994.53;;;2.56;100.00
7990;BME280;4040;42.848;23.034;2023-04-29T04:07:01;94989.75;;;2.65;100.00
7990;BME280;4040;42.848;23.034;2023-04-29T04:17:12;94988.56;;;3.16;100.00
7990;BME280;4040;42.848;23.034;2023-04-29T04:23:02;94999.88;;;3.28;100.00
7990;BME280;4040;42.848;23.034;2023-04-29T04:28:50;94996.72;;;3.61;100.00
7990;BME280;4040;42.848;23.034;2023-04-29T04:34:39;94994.84;;;3.84;100.00
7990;BME280;4040;42.848;23.034;2023-04-29T04:40:29;94995.31;;;4.12;100.00
7990;BME280;4040;42.848;23.034;2023-04-29T04:46:18;94986.44;;;4.04;100.00
7990;BME280;4040;42.848;23.034;2023-04-29T04:52:07;94977.31;;;4.28;100.00
7990;BME280;4040;42.848;23.034;2023-04-29T04:57:57;94982.84;;;4.38;100.00
7990;BME280;4040;42.848;23.034;2023-04-29T05:03:45;94969.25;;;4.47;100.00
7990;BME280;4040;42.848;23.034;2023-04-29T05:09:34;94968.38;;;4.94;100.00
7990;BME280;4040;42.848;23.034;2023-04-29T05:19:46;94965.59;;;5.43;100.00
7990;BME280;4040;42.848;23.034;2023-04-29T05:25:35;94959.63;;;5.89;100.00
7990;BME280;4040;42.848;23.034;2023-04-29T05:31:24;94967.78;;;6.47;100.00
7990;BME280;4040;42.848;23.034;2023-04-29T05:37:16;94972.03;;;7.19;100.00
7990;BME280;4040;42.848;23.034;2023-04-29T05:43:04;94956.31;;;8.31;100.00
7990;BME280;4040;42.848;23.034;2023-04-29T05:48:53;94953.69;;;9.73;93.52
7990;BME280;4040;42.848;23.034;2023-04-29T05:54:43;94949.75;;;11.33;72.79
7990;BME280;4040;42.848;23.034;2023-04-29T06:00:32;94943.84;;;12.58;63.41
7990;BME280;4040;42.848;23.034;2023-04-29T06:06:20;94941.63;;;13.41;56.42
7990;BME280;4040;42.848;23.034;2023-04-29T06:12:11;94947.50;;;12.71;56.77
7990;BME280;4040;42.848;23.034;2023-04-29T06:22:21;94934.34;;;13.58;55.42
7990;BME280;4040;42.848;23.034;2023-04-29T06:28:12;94932.31;;;12.54;57.59
7990;BME280;4040;42.848;23.034;2023-04-29T06:34:01;94943.16;;;14.68;51.31
7990;BME280;4040;42.848;23.034;2023-04-29T06:39:49;94958.03;;;16.09;49.16
7990;BME280;4040;42.848;23.034;2023-04-29T06:45:40;94947.78;;;18.02;42.92
7990;BME280;4040;42.848;23.034;2023-04-29T06:51:28;94918.63;;;16.42;46.26
7990;BME280;4040;42.848;23.034;2023-04-29T06:57:18;94942.66;;;16.44;45.35
7990;BME280;4040;42.848;23.034;2023-04-29T07:03:08;94934.25;;;14.36;50.14
7990;BME280;4040;42.848;23.034;2023-04-29T07:08:57;94928.66;;;14.07;51.51
7990;BME280;4040;42.848;23.034;2023-04-29T07:14:46;94916.31;;;14.42;51.78
7990;BME280;4040;42.848;23.034;2023-04-29T07:24:52;94919.88;;;14.71;50.67
7990;BME280;4040;42.848;23.034;2023-04-29T07:30:41;94880.38;;;14.22;50.77
7990;BME280;4040;42.848;23.034;2023-04-29T07:36:29;94919.59;;;13.98;53.23
7990;BME280;4040;42.848;23.034;2023-04-29T07:42:20;94917.75;;;14.30;51.71
7990;BME280;4040;42.848;23.034;2023-04-29T07:48:08;94907.56;;;13.83;53.85
7990;BME280;4040;42.848;23.034;2023-04-29T07:53:57;94903.78;;;14.48;52.25
7990;BME280;4040;42.848;23.034;2023-04-29T07:59:50;94899.13;;;14.13;54.23
7990;BME280;4040;42.848;23.034;2023-04-29T08:05:39;94892.38;;;14.05;54.13
7990;BME280;4040;42.848;23.034;2023-04-29T08:11:29;94888.63;;;13.63;54.09
7990;BME280;4040;42.848;23.034;2023-04-29T08:17:20;94884.97;;;13.89;52.09
7990;BME280;4040;42.848;23.034;2023-04-29T08:27:30;94899.69;;;13.53;53.37
7990;BME280;4040;42.848;23.034;2023-04-29T08:33:20;94896.66;;;14.22;53.51
7990;BME280;4040;42.848;23.034;2023-04-29T08:39:09;94902.75;;;14.26;50.74
7990;BME280;4040;42.848;23.034;2023-04-29T08:44:58;94900.16;;;15.31;49.32
7990;BME280;4040;42.848;23.034;2023-04-29T08:50:58;94893.25;;;15.95;46.80
7990;BME280;4040;42.848;23.034;2023-04-29T08:56:51;94885.00;;;16.61;44.03
7990;BME280;4040;42.848;23.034;2023-04-29T09:02:43;94871.72;;;18.26;41.71
7990;BME280;4040;42.848;23.034;2023-04-29T09:08:34;94877.03;;;20.31;37.72
7990;BME280;4040;42.848;23.034;2023-04-29T09:14:24;94867.81;;;21.83;36.02
7990;BME280;4040;42.848;23.034;2023-04-29T09:20:26;94869.75;;;20.92;36.89
7990;BME280;4040;42.848;23.034;2023-04-29T09:30:46;94858.03;;;19.14;40.28
7990;BME280;4040;42.848;23.034;2023-04-29T09:36:36;94851.91;;;18.92;39.25
7990;BME280;4040;42.848;23.034;2023-04-29T09:42:25;94833.25;;;18.72;40.30
7990;BME280;4040;42.848;23.034;2023-04-29T09:48:15;94825.28;;;19.32;39.21
7990;BME280;4040;42.848;23.034;2023-04-29T09:54:19;94805.28;;;21.06;36.79
7990;BME280;4040;42.848;23.034;2023-04-29T10:00:09;94803.19;;;24.42;30.62
7990;BME280;4040;42.848;23.034;2023-04-29T10:06:00;94799.16;;;23.81;32.59
7990;BME280;4040;42.848;23.034;2023-04-29T10:11:49;94803.03;;;20.81;33.66
7990;BME280;4040;42.848;23.034;2023-04-29T10:17:43;94790.84;;;20.82;34.88
7990;BME280;4040;42.848;23.034;2023-04-29T10:23:35;94769.66;;;21.44;33.89
7990;BME280;4040;42.848;23.034;2023-04-29T10:33:47;94774.38;;;21.58;33.50
7990;BME280;4040;42.848;23.034;2023-04-29T10:39:45;94775.13;;;20.68;32.10
7990;BME280;4040;42.848;23.034;2023-04-29T10:45:35;94778.84;;;19.41;33.78
7990;BME280;4040;42.848;23.034;2023-04-29T10:51:29;94768.13;;;19.79;34.77
7990;BME280;4040;42.848;23.034;2023-04-29T10:57:21;94766.09;;;20.30;32.16
7990;BME280;4040;42.848;23.034;2023-04-29T11:03:44;94742.25;;;21.29;30.16
7990;BME280;4040;42.848;23.034;2023-04-29T11:09:34;94741.72;;;21.54;28.25
7990;BME280;4040;42.848;23.034;2023-04-29T11:15:26;94747.59;;;20.72;30.07
7990;BME280;4040;42.848;23.034;2023-04-29T11:21:19;94746.88;;;20.39;26.50
7990;BME280;4040;42.848;23.034;2023-04-29T11:27:08;94740.22;;;20.40;29.40
7990;BME280;4040;42.848;23.034;2023-04-29T11:32:58;94730.56;;;19.56;30.31
7990;BME280;4040;42.848;23.034;2023-04-29T11:38:47;94743.69;;;19.25;29.50
7990;BME280;4040;42.848;23.034;2023-04-29T11:44:36;94738.13;;;19.61;29.77
7990;BME280;4040;42.848;23.034;2023-04-29T11:50:26;94734.09;;;20.45;28.94
7990;BME280;4040;42.848;23.034;2023-04-29T11:56:20;94735.16;;;19.23;30.49
7990;BME280;4040;42.848;23.034;2023-04-29T12:02:11;94715.94;;;18.72;nan
7990;BME280;4040;42.848;23.034;2023-04-29T12:08:02;94713.22;;;19.59;32.23
7990;BME280;4040;42.848;23.034;2023-04-29T12:13:51;94711.63;;;19.76;30.72
7990;BME280;4040;42.848;23.034;2023-04-29T12:19:41;94707.03;;;19.91;32.47
7990;BME280;4040;42.848;23.034;2023-04-29T12:25:31;94701.03;;;20.34;31.05
7990;BME280;4040;42.848;23.034;2023-04-29T12:35:02;94696.47;;;19.75;32.46
7990;BME280;4040;42.848;23.034;2023-04-29T12:40:52;94688.41;;;20.36;32.56
7990;BME280;4040;42.848;23.034;2023-04-29T12:46:41;94691.59;;;20.02;32.98
7990;BME280;4040;42.848;23.034;2023-04-29T12:52:30;94700.63;;;19.94;33.49
7990;BME280;4040;42.848;23.034;2023-04-29T12:58:20;94685.97;;;20.15;32.45
7990;BME280;4040;42.848;23.034;2023-04-29T13:04:09;94685.41;;;20.02;34.35
7990;BME280;4040;42.848;23.034;2023-04-29T13:09:58;94673.84;;;20.91;33.48
7990;BME280;4040;42.848;23.034;2023-04-29T13:15:48;94671.50;;;21.13;32.93
7990;BME280;4040;42.848;23.034;2023-04-29T13:21:37;94671.75;;;20.86;33.93
7990;BME280;4040;42.848;23.034;2023-04-29T13:27:26;94669.59;;;20.53;35.26
7990;BME280;4040;42.848;23.034;2023-04-29T13:37:19;94666.03;;;20.61;33.15
7990;BME280;4040;42.848;23.034;2023-04-29T13:43:07;94665.63;;;20.54;34.55
7990;BME280;4040;42.848;23.034;2023-04-29T13:48:56;94662.00;;;20.10;34.78
7990;BME280;4040;42.848;23.034;2023-04-29T13:54:46;94654.72;;;20.07;36.63
7990;BME280;4040;42.848;23.034;2023-04-29T14:00:34;94648.28;;;19.54;35.65
7990;BME280;4040;42.848;23.034;2023-04-29T14:06:25;94638.91;;;20.11;37.40
7990;BME280;4040;42.848;23.034;2023-04-29T14:12:15;94633.34;;;19.40;37.90
7990;BME280;4040;42.848;23.034;2023-04-29T14:18:03;94637.47;;;19.27;39.46
7990;BME280;4040;42.848;23.034;2023-04-29T14:23:54;94637.25;;;18.80;40.49
7990;BME280;4040;42.848;23.034;2023-04-29T14:29:44;94638.19;;;18.23;44.40
7990;BME280;4040;42.848;23.034;2023-04-29T14:39:45;94623.34;;;18.24;42.17
7990;BME280;4040;42.848;23.034;2023-04-29T14:45:35;94620.94;;;18.44;42.39
7990;BME280;4040;42.848;23.034;2023-04-29T14:51:23;94629.41;;;18.55;43.06
7990;BME280;4040;42.848;23.034;2023-04-29T14:57:13;94616.22;;;18.08;42.54
7990;BME280;4040;42.848;23.034;2023-04-29T15:03:03;94614.81;;;17.86;41.94
7990;BME280;4040;42.848;23.034;2023-04-29T15:08:52;94628.09;;;17.66;43.05
7990;BME280;4040;42.848;23.034;2023-04-29T15:14:41;94591.03;;;17.20;43.95
7990;BME280;4040;42.848;23.034;2023-04-29T15:20:31;94602.81;;;17.17;44.08
7990;BME280;4040;42.848;23.034;2023-04-29T15:26:20;94599.41;;;17.04;45.15
7990;BME280;4040;42.848;23.034;2023-04-29T15:32:09;94597.41;;;16.96;45.12
7990;BME280;4040;42.848;23.034;2023-04-29T15:42:21;94603.13;;;16.89;45.96
7990;BME280;4040;42.848;23.034;2023-04-29T15:48:09;94599.59;;;16.79;45.48
7990;BME280;4040;42.848;23.034;2023-04-29T15:53:58;94605.63;;;16.74;46.23
7990;BME280;4040;42.848;23.034;2023-04-29T15:59:48;94597.97;;;16.60;48.46
7990;BME280;4040;42.848;23.034;2023-04-29T16:05:36;94601.91;;;16.59;51.79
7990;BME280;4040;42.848;23.034;2023-04-29T16:11:25;94616.69;;;16.58;52.30
7990;BME280;4040;42.848;23.034;2023-04-29T16:17:16;94610.50;;;16.36;58.84
7990;BME280;4040;42.848;23.034;2023-04-29T16:23:04;94614.75;;;16.03;65.72
7990;BME280;4040;42.848;23.034;2023-04-29T16:28:53;94616.66;;;15.81;58.74
7990;BME280;4040;42.848;23.034;2023-04-29T16:34:43;94611.47;;;15.74;59.30
7990;BME280;4040;42.848;23.034;2023-04-29T16:44:54;94609.09;;;15.64;60.95
7990;BME280;4040;42.848;23.034;2023-04-29T16:50:46;94620.94;;;15.70;67.42
7990;BME280;4040;42.848;23.034;2023-04-29T16:56:35;94619.31;;;15.47;68.48
7990;BME280;4040;42.848;23.034;2023-04-29T17:02:25;94628.75;;;15.06;85.74
7990;BME280;4040;42.848;23.034;2023-04-29T17:08:15;94630.19;;;14.98;90.99
7990;BME280;4040;42.848;23.034;2023-04-29T17:14:04;94631.47;;;14.81;94.37
7990;BME280;4040;42.848;23.034;2023-04-29T17:19:53;94614.47;;;14.39;98.84
7990;BME280;4040;42.848;23.034;2023-04-29T17:25:43;94631.00;;;14.29;100.00
7990;BME280;4040;42.848;23.034;2023-04-29T17:31:32;94641.06;;;14.28;100.00
7990;BME280;4040;42.848;23.034;2023-04-29T17:37:30;94645.09;;;14.24;100.00
7990;BME280;4040;42.848;23.034;2023-04-29T17:47:43;94625.66;;;13.97;100.00
7990;BME280;4040;42.848;23.034;2023-04-29T17:53:32;94614.25;;;13.89;100.00
7990;BME280;4040;42.848;23.034;2023-04-29T17:59:21;94656.16;;;14.13;100.00
7990;BME280;4040;42.848;23.034;2023-04-29T18:05:11;94648.06;;;13.97;100.00
7990;BME280;4040;42.848;23.034;2023-04-29T18:11:01;94624.50;;;13.82;100.00
7990;BME280;4040;42.848;23.034;2023-04-29T18:16:50;94654.41;;;13.91;100.00
7990;BME280;4040;42.848;23.034;2023-04-29T18:22:40;94651.06;;;13.87;100.00
7990;BME280;4040;42.848;23.034;2023-04-29T18:28:29;94640.59;;;13.73;100.00
7990;BME280;4040;42.848;23.034;2023-04-29T18:34:17;94654.78;;;13.77;100.00
7990;BME280;4040;42.848;23.034;2023-04-29T18:40:11;94642.59;;;13.69;100.00
7990;BME280;4040;42.848;23.034;2023-04-29T18:50:25;94659.03;;;13.62;100.00
7990;BME280;4040;42.848;23.034;2023-04-29T18:56:16;94670.09;;;13.51;100.00
7990;BME280;4040;42.848;23.034;2023-04-29T19:02:05;94668.41;;;13.41;100.00
7990;BME280;4040;42.848;23.034;2023-04-29T19:07:54;94682.19;;;13.31;100.00
7990;BME280;4040;42.848;23.034;2023-04-29T19:13:44;94675.03;;;13.05;100.00
7990;BME280;4040;42.848;23.034;2023-04-29T19:19:33;94682.88;;;12.99;100.00
7990;BME280;4040;42.848;23.034;2023-04-29T19:25:22;94687.84;;;12.81;100.00
7990;BME280;4040;42.848;23.034;2023-04-29T19:31:23;94688.41;;;12.92;100.00
7990;BME280;4040;42.848;23.034;2023-04-29T19:37:13;94682.44;;;12.81;100.00
7990;BME280;4040;42.848;23.034;2023-04-29T19:43:02;94680.72;;;12.91;100.00
7990;BME280;4040;42.848;23.034;2023-04-29T19:53:14;94679.00;;;12.81;100.00
7990;BME280;4040;42.848;23.034;2023-04-29T19:59:03;94678.59;;;12.63;100.00
7990;BME280;4040;42.848;23.034;2023-04-29T20:04:52;94685.41;;;12.87;100.00
7990;BME280;4040;42.848;23.034;2023-04-29T20:10:43;94678.66;;;12.79;100.00
7990;BME280;4040;42.848;23.034;2023-04-29T20:16:32;94686.56;;;12.70;100.00
7990;BME280;4040;42.848;23.034;2023-04-29T20:22:21;94673.00;;;12.73;100.00
7990;BME280;4040;42.848;23.034;2023-04-29T20:28:11;94675.22;;;12.59;100.00
7990;BME280;4040;42.848;23.034;2023-04-29T20:34:00;94670.41;;;12.66;100.00
7990;BME280;4040;42.848;23.034;2023-04-29T20:39:49;94667.78;;;12.63;100.00
7990;BME280;4040;42.848;23.034;2023-04-29T20:45:39;94664.69;;;12.45;100.00
7990;BME280;4040;42.848;23.034;2023-04-29T20:55:50;94664.28;;;12.27;100.00
7990;BME280;4040;42.848;23.034;2023-04-29T21:01:40;94665.91;;;12.21;100.00
7990;BME280;4040;42.848;23.034;2023-04-29T21:07:29;94658.72;;;11.95;100.00
7990;BME280;4040;42.848;23.034;2023-04-29T21:13:18;94652.59;;;11.91;100.00
7990;BME280;4040;42.848;23.034;2023-04-29T21:19:08;94658.50;;;11.63;100.00
7990;BME280;4040;42.848;23.034;2023-04-29T21:24:57;94654.72;;;11.57;100.00
7990;BME280;4040;42.848;23.034;2023-04-29T21:30:46;94662.34;;;11.62;100.00
7990;BME280;4040;42.848;23.034;2023-04-29T21:36:36;94665.28;;;11.71;100.00
7990;BME280;4040;42.848;23.034;2023-04-29T21:42:25;94674.75;;;11.56;100.00
7990;BME280;4040;42.848;23.034;2023-04-29T21:48:15;94671.13;;;11.43;100.00
7990;BME280;4040;42.848;23.034;2023-04-29T21:58:29;94680.13;;;11.60;100.00
7990;BME280;4040;42.848;23.034;2023-04-29T22:08:30;94669.72;;;11.09;100.00
7990;BME280;4040;42.848;23.034;2023-04-29T22:14:19;94675.72;;;10.93;100.00
7990;BME280;4040;42.848;23.034;2023-04-29T22:20:10;94667.72;;;10.86;100.00
7990;BME280;4040;42.848;23.034;2023-04-29T22:26:01;94662.19;;;10.70;100.00
7990;BME280;4040;42.848;23.034;2023-04-29T22:31:49;94655.41;;;10.59;100.00
7990;BME280;4040;42.848;23.034;2023-04-29T22:37:38;94661.44;;;10.36;100.00
7990;BME280;4040;42.848;23.034;2023-04-29T22:43:29;94647.97;;;10.36;100.00
7990;BME280;4040;42.848;23.034;2023-04-29T22:49:17;94642.69;;;10.29;100.00
7990;BME280;4040;42.848;23.034;2023-04-29T22:55:06;94636.69;;;10.18;100.00
7990;BME280;4040;42.848;23.034;2023-04-29T23:00:57;94636.06;;;10.00;100.00
7990;BME280;4040;42.848;23.034;2023-04-29T23:03:25;94630.03;;;9.90;100.00
7990;BME280;4040;42.848;23.034;2023-04-29T23:09:14;94630.09;;;9.83;100.00
7990;BME280;4040;42.848;23.034;2023-04-29T23:15:03;94619.00;;;9.81;100.00
7990;BME280;4040;42.848;23.034;2023-04-29T23:20:54;94621.84;;;9.67;100.00
7990;BME280;4040;42.848;23.034;2023-04-29T23:26:43;94623.47;;;9.54;100.00
7990;BME280;4040;42.848;23.034;2023-04-29T23:32:32;94619.75;;;9.41;100.00
7990;BME280;4040;42.848;23.034;2023-04-29T23:38:22;94615.28;;;9.27;100.00
7990;BME280;4040;42.848;23.034;2023-04-29T23:44:11;94621.94;;;9.12;100.00
7990;BME280;4040;42.848;23.034;2023-04-29T23:49:59;94612.41;;;9.01;100.00
7990;BME280;4040;42.848;23.034;2023-04-29T23:55:50;94599.41;;;8.96;100.00
